KEFT

Monroe Municipal Airport

Monroe, Wisconsin, USA
METAR KEFT 210635Z AUTO 05006KT 10SM SCT070 09/06 A3015 RMK AO2
Observed Flight Rules
May-21 @ 06:35 UTC (31 minutes ago) Visual Flight Rules
Wind Visibility Clouds
50° at 6 knots 10 miles
  • Scattered at 7,000' AGL
Temperatures Readings
Current 9°C / 48°F
Dewpoint 6°C / 43°F
Humidity 82%
Altimeter 30.15" Hg
Pressure 1021 hPa
Elevation 331
METAR KEFT 210635Z AUTO 05006KT 10SM SCT070 09/06 A3015 RMK AO2
Observed Flight Rules
May-21 @ 06:35 UTC
(31 minutes ago)
VFR
Wind Visibility
50° at 6 knots 10 miles
Clouds
  • Scattered at 7,000' AGL
Temperature Dewpoint
9°C / 48°F 6°C / 43°F
Humidity Altimeter Pressure
82% 30.15" Hg 1021 hPa